Dereham, United Kingdom
Current Conditions -  °F | °C
As of 10:20 PM on Friday 24 Oct 2014 (Local Time) from EGSH Reporting Station
Scattered Clouds Scattered Clouds  
Wind Chill: 12°   Ceiling: Unl
Heat Index: 12°   Visibility: 6mi
Dew Point: 11°   Wind: 9mph
Humidity: 94%   Direction: 280°W
Pressure: 29.91"   Gusts: NA
Location:  52.64°N, 0.97°E
Report Text: EGSH 242120Z AUTO 28008KT 9999 SCT038/// SCT048/// 12/11 Q1013
Loading
Personal Weather Stations






























Interactive Weather Map
Tropical Storm Tracking
New forecast layout! Learn more

10-Day Weather Forecast

Advertisements
Track Severe Weather on mobile